Time;durP1;ratioP1;P1;durP2;ratioP2;P2;SDS_P1;SDS_P2;PMS_P1;PMS_P2;Temp;Humidity;BMP_temperature;BMP_pressure;BME280_temperature;BME280_humidity;BME280_pressure;Samples;Min_cycle;Max_cycle;Signal;HPM_P1;HPM_P2
2022/04/20 00:00:35;;;;;;;7.07;5.32;;;9.70;79.20;;;;;;5098724;28;20110;-50
2022/04/20 00:03:20;;;;;;;6.30;5.47;;;9.60;79.50;;;;;;5094026;28;20047;-50
2022/04/20 00:06:05;;;;;;;6.53;5.65;;;9.60;78.90;;;;;;5112022;27;20051;-49
2022/04/20 00:08:49;;;;;;;;;;;9.50;78.70;;;;;;5104767;27;20413;-47
2022/04/20 00:11:33;;;;;;;9.40;6.03;;;9.30;77.40;;;;;;5133716;27;20389;-49
2022/04/20 00:14:17;;;;;;;10.77;6.70;;;9.10;77.80;;;;;;5130344;27;20058;-48
2022/04/20 00:17:01;;;;;;;9.43;6.47;;;9.10;78.80;;;;;;5107374;28;20034;-50
2022/04/20 00:19:45;;;;;;;9.60;7.10;;;9.00;78.80;;;;;;5099713;28;20205;-52
2022/04/20 00:22:29;;;;;;;12.98;7.13;;;8.90;79.90;;;;;;5113236;28;20042;-48
2022/04/20 00:25:14;;;;;;;12.05;7.57;;;8.90;80.10;;;;;;5084256;28;20165;-52
2022/04/20 00:27:58;;;;;;;10.88;7.60;;;8.90;81.40;;;;;;5077935;28;20050;-48
2022/04/20 00:30:42;;;;;;;9.88;6.72;;;8.80;81.70;;;;;;5109392;28;20161;-51
2022/04/20 00:33:28;;;;;;;9.88;7.45;;;8.80;82.10;;;;;;5113569;28;20398;-50
2022/04/20 00:36:13;;;;;;;14.13;9.45;;;8.90;82.40;;;;;;5077370;28;20441;-48
2022/04/20 00:38:58;;;;;;;46.10;27.08;;;8.90;82.50;;;;;;5093320;28;20089;-48
2022/04/20 00:41:42;;;;;;;54.35;31.33;;;9.00;82.30;;;;;;5101540;27;20066;-51
2022/04/20 00:44:26;;;;;;;24.88;15.93;;;9.00;82.40;;;;;;5126558;28;20085;-52
2022/04/20 00:47:10;;;;;;;16.20;11.43;;;9.10;83.00;;;;;;5104297;28;20160;-54
2022/04/20 00:49:56;;;;;;;10.90;8.15;;;9.10;83.10;;;;;;5112828;28;20108;-48
2022/04/20 00:52:40;;;;;;;13.40;8.52;;;9.10;83.20;;;;;;5112906;28;20434;-47
2022/04/20 00:55:24;;;;;;;11.80;8.35;;;9.10;83.30;;;;;;5112997;28;20783;-46
2022/04/20 00:58:08;;;;;;;10.67;8.80;;;9.10;83.70;;;;;;5112725;28;20066;-50
2022/04/20 01:00:52;;;;;;;11.23;8.93;;;9.00;84.40;;;;;;5097120;28;20066;-48
2022/04/20 01:03:37;;;;;;;12.87;9.60;;;8.90;85.20;;;;;;5091775;28;20074;-50
2022/04/20 01:06:21;;;;;;;12.20;10.13;;;8.80;84.50;;;;;;5111404;28;20264;-50
2022/04/20 01:09:05;;;;;;;14.27;10.10;;;8.80;83.30;;;;;;5111332;28;20050;-48
2022/04/20 01:11:51;;;;;;;15.65;9.00;;;8.80;83.70;;;;;;5093276;28;20035;-47
2022/04/20 01:14:36;;;;;;;11.40;8.85;;;8.70;83.30;;;;;;5098539;28;20081;-49
2022/04/20 01:17:20;;;;;;;12.07;7.85;;;8.60;82.50;;;;;;5104087;28;20106;-49
2022/04/20 01:20:22;;;;;;;9.88;7.43;;;8.40;82.40;;;;;;5101201;28;20047;-48
2022/04/20 01:23:07;;;;;;;12.10;7.20;;;8.30;82.70;;;;;;5114180;28;20043;-48
2022/04/20 01:25:55;;;;;;;11.85;7.07;;;8.20;82.80;;;;;;5100477;28;20043;-49
2022/04/20 01:28:46;;;;;;;11.27;7.05;;;8.20;83.00;;;;;;5096015;28;20400;-52
2022/04/20 01:31:31;;;;;;;11.75;7.72;;;8.10;83.30;;;;;;5096876;28;20046;-48
2022/04/20 01:34:15;;;;;;;9.27;7.32;;;8.10;84.00;;;;;;5106124;28;20058;-47
2022/04/20 01:36:59;;;;;;;10.55;7.88;;;8.30;84.20;;;;;;5116164;28;20490;-48
2022/04/20 01:39:43;;;;;;;13.37;8.20;;;8.20;84.30;;;;;;5115232;28;20066;-48
2022/04/20 01:42:31;;;;;;;11.52;8.73;;;8.10;85.00;;;;;;5121184;27;20038;-46
2022/04/20 01:45:15;;;;;;;12.35;8.27;;;8.10;85.00;;;;;;5116094;28;20462;-48
2022/04/20 01:47:59;;;;;;;10.10;7.13;;;8.00;84.60;;;;;;5115711;28;20043;-50
2022/04/20 01:53:45;;;;;;;10.30;7.30;;;7.90;84.30;;;;;;5100644;28;20113;-48
2022/04/20 01:56:29;;;;;;;8.80;7.30;;;7.80;84.60;;;;;;5079955;28;20411;-47
2022/04/20 01:59:14;;;;;;;8.40;6.70;;;7.80;84.50;;;;;;5113713;28;20047;-47
2022/04/20 02:05:04;;;;;;;7.05;6.05;;;7.70;85.50;;;;;;5115611;28;20058;-49
2022/04/20 02:07:48;;;;;;;10.70;8.15;;;7.70;85.50;;;;;;5095420;28;20086;-45
2022/04/20 02:10:32;;;;;;;14.32;7.20;;;7.60;85.90;;;;;;5095210;28;20066;-49
2022/04/20 02:13:16;;;;;;;12.93;7.65;;;7.70;85.90;;;;;;5088439;28;20117;-47
2022/04/20 02:16:00;;;;;;;12.65;7.25;;;7.70;86.00;;;;;;5115664;28;20039;-49
2022/04/20 02:18:44;;;;;;;10.20;7.70;;;7.60;86.00;;;;;;5107244;28;20035;-49
2022/04/20 02:21:28;;;;;;;13.35;6.95;;;7.60;86.20;;;;;;5115699;28;20074;-48
2022/04/20 02:24:13;;;;;;;7.78;6.43;;;7.60;86.10;;;;;;5099408;28;20075;-47
2022/04/20 02:26:57;;;;;;;10.18;6.50;;;7.60;85.00;;;;;;5094395;28;20070;-49
2022/04/20 02:29:41;;;;;;;9.38;6.75;;;7.60;84.90;;;;;;5095220;28;20070;-47
2022/04/20 02:32:25;;;;;;;10.35;6.45;;;7.50;84.80;;;;;;5098220;28;20031;-46
2022/04/20 02:35:09;;;;;;;9.23;6.70;;;7.40;85.20;;;;;;5114628;28;20132;-48
2022/04/20 02:37:56;;;;;;;8.30;6.65;;;7.40;85.10;;;;;;5109179;28;20051;-48
2022/04/20 02:40:45;;;;;;;8.40;6.65;;;7.30;85.40;;;;;;5078916;28;20062;-51
2022/04/20 02:43:32;;;;;;;9.18;6.80;;;7.20;86.40;;;;;;5118731;27;20030;-48
2022/04/20 02:46:16;;;;;;;9.60;7.40;;;7.20;85.70;;;;;;5115651;27;20096;-50
2022/04/20 02:49:00;;;;;;;11.52;6.60;;;7.10;86.10;;;;;;5117574;27;20125;-47
2022/04/20 02:51:44;;;;;;;9.95;6.57;;;7.20;86.30;;;;;;5115241;28;20107;-47
2022/04/20 02:54:29;;;;;;;9.15;6.90;;;7.30;86.20;;;;;;5079097;28;20040;-47
2022/04/20 02:57:13;;;;;;;9.93;6.65;;;7.20;86.20;;;;;;5094619;28;20097;-50
2022/04/20 02:59:58;;;;;;;9.95;6.55;;;7.20;86.20;;;;;;5114682;28;20043;-49
2022/04/20 03:02:42;;;;;;;9.02;7.13;;;7.20;86.10;;;;;;5109982;28;20063;-47
2022/04/20 03:05:26;;;;;;;12.45;8.35;;;7.20;85.80;;;;;;5094364;28;20094;-47
2022/04/20 03:08:11;;;;;;;9.82;6.57;;;7.20;86.60;;;;;;5101068;28;20096;-48
2022/04/20 03:10:56;;;;;;;;;;;7.20;86.80;;;;;;5115537;28;20030;-49
2022/04/20 03:13:41;;;;;;;10.88;7.93;;;7.20;87.20;;;;;;5103843;28;19915;-46
2022/04/20 03:16:25;;;;;;;9.88;7.25;;;7.20;87.70;;;;;;5094322;28;20039;-48
2022/04/20 03:19:09;;;;;;;9.43;6.78;;;7.20;87.40;;;;;;5111579;28;20047;-47
2022/04/20 03:21:53;;;;;;;7.30;5.82;;;7.10;87.80;;;;;;5114301;28;20047;-47
2022/04/20 03:24:37;;;;;;;9.07;6.50;;;7.10;88.40;;;;;;5093986;28;20392;-48
2022/04/20 03:27:21;;;;;;;7.63;6.35;;;7.10;88.50;;;;;;5095535;28;20031;-47
2022/04/20 03:30:06;;;;;;;9.05;7.13;;;7.10;88.30;;;;;;5096423;28;20102;-46
2022/04/20 03:32:51;;;;;;;7.80;6.93;;;7.10;89.00;;;;;;5094876;28;20093;-48
2022/04/20 03:35:39;;;;;;;9.15;6.53;;;7.10;89.30;;;;;;5093902;28;20035;-50
2022/04/20 03:38:23;;;;;;;9.63;6.68;;;7.10;89.70;;;;;;5090412;28;20051;-48
2022/04/20 03:41:08;;;;;;;9.50;6.40;;;7.10;88.60;;;;;;5114146;28;20038;-47
2022/04/20 03:43:53;;;;;;;;;;;7.00;87.20;;;;;;5109157;28;20042;-47
2022/04/20 03:46:37;;;;;;;11.20;7.22;;;7.00;87.50;;;;;;5117072;27;19910;-48
2022/04/20 03:49:21;;;;;;;8.40;6.60;;;7.00;88.00;;;;;;5113623;28;20043;-50
2022/04/20 03:52:07;;;;;;;11.32;7.28;;;7.00;88.50;;;;;;5112545;28;20034;-49
2022/04/20 03:54:51;;;;;;;8.77;7.05;;;7.00;89.60;;;;;;5092625;28;20094;-50
2022/04/20 03:57:35;;;;;;;9.40;6.20;;;6.90;90.50;;;;;;5096524;28;20034;-48
2022/04/20 04:00:24;;;;;;;13.40;7.15;;;7.00;90.60;;;;;;5112312;28;20054;-48
2022/04/20 04:03:08;;;;;;;13.10;7.63;;;6.90;90.90;;;;;;5105032;28;20162;-48
2022/04/20 04:05:52;;;;;;;8.37;6.67;;;7.00;91.00;;;;;;5093036;28;20042;-50
2022/04/20 04:08:37;;;;;;;40.55;23.80;;;7.00;91.10;;;;;;5099236;28;20077;-49
2022/04/20 04:11:20;;;;;;;30.10;17.88;;;7.00;91.20;;;;;;5130332;27;20080;-49
2022/04/20 04:14:04;;;;;;;15.50;9.95;;;7.00;91.40;;;;;;5134026;27;20034;-50
2022/04/20 04:16:48;;;;;;;12.27;8.27;;;7.00;91.10;;;;;;5102789;27;20038;-47
2022/04/20 04:19:34;;;;;;;11.05;7.53;;;7.00;91.40;;;;;;5117459;27;20081;-47
2022/04/20 04:22:18;;;;;;;8.48;6.90;;;7.10;91.70;;;;;;5111128;28;20162;-50
2022/04/20 04:25:02;;;;;;;11.00;7.65;;;7.10;92.20;;;;;;5112715;28;20081;-51
2022/04/20 04:27:47;;;;;;;10.82;7.07;;;7.10;92.10;;;;;;5092671;28;20035;-50
2022/04/20 04:30:32;;;;;;;8.23;6.90;;;7.10;92.60;;;;;;5095806;28;20066;-47
2022/04/20 04:33:16;;;;;;;;;;;7.10;92.50;;;;;;5113184;28;20047;-46
2022/04/20 04:36:01;;;;;;;13.27;6.93;;;7.10;90.90;;;;;;5104983;28;19962;-48
2022/04/20 04:38:45;;;;;;;8.80;7.18;;;7.00;90.90;;;;;;5092432;28;20101;-47
2022/04/20 04:41:29;;;;;;;7.40;6.35;;;6.90;91.10;;;;;;5085108;27;20043;-50
2022/04/20 04:44:13;;;;;;;10.00;6.03;;;6.90;90.80;;;;;;5133001;27;20058;-46
2022/04/20 04:50:00;;;;;;;9.57;7.05;;;6.80;90.90;;;;;;5112333;28;20026;-47
2022/04/20 04:52:44;;;;;;;9.60;7.17;;;6.80;90.50;;;;;;5112636;28;20035;-47
2022/04/20 04:55:29;;;;;;;7.32;6.25;;;6.90;90.20;;;;;;5107951;28;20115;-47
2022/04/20 04:58:13;;;;;;;11.13;6.93;;;6.90;90.40;;;;;;5095575;28;20062;-49
2022/04/20 05:01:00;;;;;;;10.43;6.93;;;6.90;90.30;;;;;;5104153;28;20162;-50
2022/04/20 05:03:44;;;;;;;8.45;7.28;;;7.00;89.70;;;;;;5116651;28;20097;-48
2022/04/20 05:06:29;;;;;;;9.05;7.65;;;7.10;90.10;;;;;;5115840;28;20058;-48
2022/04/20 05:09:13;;;;;;;9.20;7.40;;;7.00;90.30;;;;;;5116781;28;20039;-47
2022/04/20 05:11:57;;;;;;;11.60;6.97;;;7.10;90.20;;;;;;5098581;28;20098;-49
2022/04/20 05:14:41;;;;;;;10.68;7.25;;;6.90;90.40;;;;;;5096779;28;20395;-52
2022/04/20 05:17:25;;;;;;;7.40;6.50;;;6.90;90.50;;;;;;5096972;28;20058;-50
2022/04/20 05:20:09;;;;;;;9.93;7.45;;;7.00;90.80;;;;;;5099439;28;20043;-46
2022/04/20 05:22:54;;;;;;;9.48;7.28;;;7.00;90.80;;;;;;5101067;28;20113;-50
2022/04/20 05:25:39;;;;;;;9.63;7.03;;;6.90;90.90;;;;;;5109648;28;20035;-52
2022/04/20 05:28:24;;;;;;;8.75;6.40;;;7.20;90.50;;;;;;5096517;28;20039;-48
2022/04/20 05:31:07;;;;;;;8.68;6.90;;;6.90;90.60;;;;;;5105249;28;20081;-51
2022/04/20 05:33:52;;;;;;;8.77;6.47;;;6.90;90.90;;;;;;5115441;28;20089;-50
2022/04/20 05:42:42;;;;;;;9.02;7.18;;;6.70;91.50;;;;;;5120640;27;20038;-48
2022/04/20 05:45:26;;;;;;;9.70;7.10;;;6.60;91.50;;;;;;5124886;27;20037;-48
2022/04/20 05:48:10;;;;;;;7.40;6.70;;;6.50;92.30;;;;;;5115324;28;20042;-48
2022/04/20 05:50:54;;;;;;;13.02;7.03;;;6.60;92.40;;;;;;5115344;28;20514;-49
2022/04/20 05:53:38;;;;;;;11.23;7.30;;;6.80;92.00;;;;;;5116152;28;20034;-47
2022/04/20 05:56:22;;;;;;;11.00;7.22;;;6.70;92.50;;;;;;5106519;28;20043;-47
2022/04/20 05:59:06;;;;;;;9.82;7.45;;;6.80;92.50;;;;;;5096528;28;20514;-50
2022/04/20 06:01:51;;;;;;;12.47;7.30;;;6.70;92.80;;;;;;5096641;28;20066;-50
2022/04/20 06:04:35;;;;;;;10.63;7.43;;;6.60;93.10;;;;;;5096229;28;20479;-48
2022/04/20 06:07:19;;;;;;;13.63;7.13;;;6.60;93.30;;;;;;5094985;28;20042;-47
2022/04/20 06:10:04;;;;;;;9.32;7.45;;;6.60;93.40;;;;;;5095603;28;20093;-48
2022/04/20 06:12:48;;;;;;;10.43;7.18;;;6.70;93.50;;;;;;5095702;28;20514;-50
2022/04/20 06:15:32;;;;;;;15.32;7.78;;;6.80;93.30;;;;;;5103161;28;20043;-53
2022/04/20 06:18:16;;;;;;;8.57;6.78;;;6.70;93.60;;;;;;5116767;27;20403;-48
2022/04/20 06:21:01;;;;;;;10.70;7.40;;;6.70;93.90;;;;;;5123445;27;20395;-52
2022/04/20 06:23:46;;;;;;;10.10;7.32;;;6.70;93.80;;;;;;5120985;27;20039;-52
2022/04/20 06:26:30;;;;;;;8.45;7.05;;;6.40;95.00;;;;;;5108904;28;20453;-52
2022/04/20 06:29:14;;;;;;;10.05;7.13;;;6.60;94.90;;;;;;5119681;27;20088;-48
2022/04/20 06:31:59;;;;;;;10.13;7.40;;;6.60;95.10;;;;;;5134891;27;20034;-52
2022/04/20 06:34:43;;;;;;;11.00;7.32;;;7.00;95.00;;;;;;5101096;28;20415;-49
2022/04/20 06:37:27;;;;;;;8.43;6.72;;;7.10;94.40;;;;;;5114684;28;20102;-47
2022/04/20 06:40:12;;;;;;;7.75;6.63;;;7.10;94.40;;;;;;5114882;28;20078;-52
2022/04/20 06:42:56;;;;;;;12.48;7.50;;;7.00;94.60;;;;;;5126756;27;20048;-47
2022/04/20 06:45:40;;;;;;;8.48;6.35;;;7.10;94.50;;;;;;5122399;27;20514;-47
2022/04/20 06:48:25;;;;;;;8.63;6.43;;;7.20;94.20;;;;;;5102791;28;20070;-48
2022/04/20 06:51:09;;;;;;;8.38;7.07;;;7.10;94.80;;;;;;5098720;28;20513;-48
2022/04/20 06:59:59;;;;;;;11.50;6.93;;;7.10;95.50;;;;;;5099012;28;20096;-47
2022/04/20 07:02:44;;;;;;;11.68;7.10;;;7.20;95.40;;;;;;5094341;28;20506;-51
2022/04/20 07:05:29;;;;;;;12.82;7.50;;;7.10;95.60;;;;;;5096294;28;20043;-48
2022/04/20 07:08:13;;;;;;;10.98;7.50;;;7.00;96.20;;;;;;5115277;28;20038;-50
2022/04/20 07:10:58;;;;;;;9.02;7.05;;;7.10;96.20;;;;;;5098158;28;20124;-49
2022/04/20 07:13:42;;;;;;;;;;;7.40;95.80;;;;;;5115877;28;20062;-51
2022/04/20 07:16:28;;;;;;;9.93;6.85;;;7.40;95.80;;;;;;5096263;28;20417;-49
2022/04/20 07:19:12;;;;;;;10.13;7.32;;;7.30;96.10;;;;;;5094191;28;20047;-51
2022/04/20 07:21:56;;;;;;;10.20;6.77;;;7.50;95.90;;;;;;5094331;28;20062;-49
2022/04/20 07:24:40;;;;;;;11.52;6.95;;;7.60;95.60;;;;;;5096308;28;20043;-48
2022/04/20 07:27:25;;;;;;;8.70;6.43;;;7.70;95.90;;;;;;5098400;28;20124;-47
2022/04/20 07:30:09;;;;;;;9.57;6.50;;;7.80;95.50;;;;;;5108963;28;20505;-52
2022/04/20 07:32:54;;;;;;;12.52;6.95;;;7.60;96.10;;;;;;5102084;28;20062;-46
2022/04/20 07:35:38;;;;;;;12.88;7.13;;;7.90;95.50;;;;;;5114162;28;20047;-48
2022/04/20 07:38:25;;;;;;;10.23;7.43;;;8.10;95.30;;;;;;5102241;28;20109;-48
2022/04/20 07:41:10;;;;;;;15.15;7.40;;;8.30;94.40;;;;;;5094152;28;20422;-49
2022/04/20 07:43:54;;;;;;;12.68;6.82;;;8.50;94.10;;;;;;5109460;28;20108;-50
2022/04/20 07:46:38;;;;;;;12.53;6.67;;;8.70;93.30;;;;;;5121614;27;20034;-49
2022/04/20 07:52:26;;;;;;;9.32;6.75;;;8.50;93.20;;;;;;5110454;28;20053;-49
2022/04/20 07:55:14;;;;;;;10.85;6.60;;;8.50;93.20;;;;;;5114527;28;20131;-49
2022/04/20 07:58:00;;;;;;;9.13;6.40;;;8.50;93.60;;;;;;5113591;28;20089;-47
2022/04/20 08:00:45;;;;;;;10.48;5.93;;;8.60;93.70;;;;;;5114082;28;20041;-51
2022/04/20 08:03:30;;;;;;;12.80;6.43;;;8.60;93.90;;;;;;5100804;28;20035;-53
2022/04/20 08:06:14;;;;;;;9.47;6.00;;;8.80;93.20;;;;;;5094100;28;20043;-54
2022/04/20 08:08:59;;;;;;;11.13;6.32;;;8.90;93.20;;;;;;5105264;28;20454;-50
2022/04/20 08:11:43;;;;;;;9.68;5.82;;;9.00;92.70;;;;;;5112199;28;20121;-52
2022/04/20 08:14:27;;;;;;;12.18;6.22;;;9.20;91.80;;;;;;5111803;28;20165;-54
2022/04/20 08:17:12;;;;;;;9.80;6.40;;;9.30;91.50;;;;;;5105517;28;20107;-51
2022/04/20 08:19:56;;;;;;;11.02;6.32;;;9.50;90.90;;;;;;5109664;27;20046;-50
2022/04/20 08:22:44;;;;;;;11.77;6.95;;;9.60;90.90;;;;;;5131800;27;20034;-54
2022/04/20 08:25:28;;;;;;;13.15;7.15;;;9.60;90.60;;;;;;5107227;27;20535;-51
2022/04/20 08:28:13;;;;;;;7.53;6.73;;;9.70;90.60;;;;;;5090659;28;20058;-52
2022/04/20 08:30:57;;;;;;;9.85;6.55;;;9.80;90.60;;;;;;5075506;28;20050;-53
2022/04/20 08:33:42;;;;;;;9.20;6.85;;;9.80;90.30;;;;;;5106594;28;20039;-54
2022/04/20 08:36:26;;;;;;;10.77;6.85;;;9.80;90.60;;;;;;5095259;28;20039;-57
2022/04/20 08:39:10;;;;;;;12.48;7.32;;;9.80;90.90;;;;;;5095247;28;20145;-52
2022/04/20 08:41:55;;;;;;;8.82;6.07;;;9.90;90.60;;;;;;5116939;27;20049;-53
2022/04/20 08:44:47;;;;;;;15.35;7.15;;;10.00;90.80;;;;;;5130792;27;20034;-55
2022/04/20 08:47:37;;;;;;;9.43;6.93;;;10.10;90.50;;;;;;5110720;28;20093;-53
2022/04/20 08:50:21;;;;;;;7.85;6.07;;;10.20;90.50;;;;;;5110960;28;20694;-54
2022/04/20 08:53:06;;;;;;;7.57;6.30;;;10.20;90.80;;;;;;5110702;28;20552;-51
2022/04/20 08:57:15;;;;;;;10.50;7.35;;;10.30;90.80;;;;;;5110590;28;20116;-54
2022/04/20 08:58:55;;;;;;;9.57;6.72;;;10.40;90.50;;;;;;5110414;28;20027;-51
2022/04/20 09:01:40;;;;;;;8.55;6.93;;;10.40;90.40;;;;;;5111299;28;20038;-52
2022/04/20 09:04:24;;;;;;;10.55;6.45;;;10.50;90.60;;;;;;5110737;28;20042;-53
2022/04/20 09:07:10;;;;;;;13.90;7.78;;;10.60;90.60;;;;;;5110565;28;20739;-56
2022/04/20 09:09:54;;;;;;;9.38;7.00;;;10.40;90.50;;;;;;5112290;28;20039;-56
2022/04/20 09:12:43;;;;;;;9.77;6.68;;;10.40;90.70;;;;;;5131376;28;20149;-53
2022/04/20 09:15:31;;;;;;;8.27;7.03;;;10.30;90.90;;;;;;5130825;28;20026;-51
2022/04/20 09:18:19;;;;;;;11.70;8.07;;;10.20;91.20;;;;;;5114712;28;20030;-51
2022/04/20 09:21:11;;;;;;;11.40;7.88;;;10.30;91.20;;;;;;5112083;28;20110;-52
2022/04/20 09:24:06;;;;;;;10.68;7.43;;;10.40;91.00;;;;;;5112148;28;20092;-49
2022/04/20 09:26:56;;;;;;;9.93;7.50;;;10.50;91.20;;;;;;5112636;28;20035;-53
2022/04/20 09:29:40;;;;;;;11.35;8.38;;;10.30;91.00;;;;;;5113731;28;20043;-59
2022/04/20 09:32:32;;;;;;;13.18;9.18;;;10.30;91.30;;;;;;5113449;28;20046;-54
2022/04/20 09:35:21;;;;;;;12.88;7.55;;;10.30;91.10;;;;;;5113300;28;20027;-55
2022/04/20 09:38:07;;;;;;;12.50;8.00;;;10.40;91.20;;;;;;5112448;28;20043;-52
2022/04/20 09:40:52;;;;;;;12.75;8.30;;;10.50;91.10;;;;;;5098818;28;20042;-57
2022/04/20 09:43:37;;;;;;;13.35;8.02;;;10.60;91.10;;;;;;5133457;27;20057;-53
2022/04/20 09:49:25;;;;;;;13.27;9.20;;;10.60;90.70;;;;;;5116492;28;20118;-54
2022/04/20 09:52:13;;;;;;;14.68;7.93;;;10.70;90.70;;;;;;5116591;28;20031;-53
2022/04/20 09:54:57;;;;;;;16.50;8.80;;;10.80;90.70;;;;;;5116021;28;20039;-53
2022/04/20 09:57:42;;;;;;;14.00;9.05;;;10.70;90.80;;;;;;5116918;28;20077;-52
2022/04/20 10:00:26;;;;;;;14.93;9.25;;;10.70;90.70;;;;;;5117297;28;20066;-53
2022/04/20 10:03:10;;;;;;;15.48;10.25;;;10.80;90.70;;;;;;5101069;28;20043;-53
2022/04/20 10:05:56;;;;;;;15.27;8.93;;;10.70;90.70;;;;;;5115808;28;20038;-51
2022/04/20 10:08:40;;;;;;;14.20;8.73;;;10.90;90.70;;;;;;5113946;28;20026;-52
2022/04/20 10:11:26;;;;;;;15.33;9.63;;;10.90;90.80;;;;;;5109886;28;20038;-54
2022/04/20 10:17:21;;;;;;;14.52;9.07;;;11.20;91.50;;;;;;5107658;28;20050;-56
2022/04/20 10:20:06;;;;;;;15.30;8.10;;;11.30;91.00;;;;;;5093907;28;20092;-55
2022/04/20 10:22:52;;;;;;;14.32;8.00;;;11.50;90.70;;;;;;5116335;28;20045;-49
2022/04/20 10:25:39;;;;;;;11.57;7.70;;;11.50;90.10;;;;;;5099097;28;20027;-57
2022/04/20 10:28:45;;;;;;;11.32;7.90;;;11.70;89.40;;;;;;5097031;28;20039;-56
2022/04/20 10:31:48;;;;;;;10.27;8.15;;;11.70;90.10;;;;;;5096604;28;20039;-52
2022/04/20 10:34:34;;;;;;;10.98;7.45;;;11.90;89.70;;;;;;5106383;28;20394;-54
2022/04/20 10:37:25;;;;;;;9.02;7.90;;;12.00;89.00;;;;;;5114968;28;20038;-56
2022/04/20 10:40:17;;;;;;;11.80;7.72;;;11.80;88.90;;;;;;5122712;27;20171;-55
2022/04/20 10:43:19;;;;;;;9.35;7.45;;;12.00;89.30;;;;;;5125104;27;20107;-53
2022/04/20 10:46:15;;;;;;;12.18;8.80;;;12.30;88.90;;;;;;5108006;28;20403;-54
2022/04/20 10:49:07;;;;;;;;;;;12.30;88.00;;;;;;5096133;28;20542;-55
2022/04/20 10:51:52;;;;;;;13.30;8.77;;;12.30;88.10;;;;;;5107850;28;19991;-57
2022/04/20 10:54:51;;;;;;;9.43;8.02;;;12.20;89.00;;;;;;5100997;28;20081;-53
2022/04/20 10:57:36;;;;;;;12.52;7.97;;;12.30;88.20;;;;;;5115684;28;20039;-57
2022/04/20 11:00:20;;;;;;;9.73;8.73;;;12.30;88.80;;;;;;5115217;28;20088;-54
2022/04/20 11:03:05;;;;;;;9.10;8.20;;;12.20;88.30;;;;;;5115308;28;20092;-48
2022/04/20 11:05:54;;;;;;;9.32;7.82;;;12.10;88.10;;;;;;5102371;28;20097;-52
2022/04/20 11:08:39;;;;;;;11.00;8.00;;;12.10;89.40;;;;;;5094047;28;20024;-49
2022/04/20 11:21:12;;;;;;;9.25;7.75;;;13.00;86.20;;;;;;5094181;28;20069;-54
2022/04/20 11:23:58;;;;;;;11.15;8.15;;;12.90;86.30;;;;;;5094505;28;20446;-52
2022/04/20 11:26:55;;;;;;;9.57;8.45;;;12.80;86.20;;;;;;5093073;28;20074;-49
2022/04/20 11:29:43;;;;;;;10.00;8.32;;;12.60;86.90;;;;;;5078946;28;20120;-50
2022/04/20 11:32:28;;;;;;;12.65;9.63;;;12.30;88.00;;;;;;5094147;28;20051;-52
2022/04/20 11:35:12;;;;;;;10.05;8.30;;;12.10;88.80;;;;;;5094060;28;20150;-53
2022/04/20 11:37:57;;;;;;;19.73;9.25;;;12.00;89.40;;;;;;5094843;28;20177;-51
2022/04/20 11:40:42;;;;;;;9.17;8.17;;;11.80;90.10;;;;;;5093987;28;20104;-50
2022/04/20 11:43:26;;;;;;;13.07;8.73;;;11.70;90.20;;;;;;5131118;27;20042;-54
2022/04/20 11:46:11;;;;;;;10.30;8.10;;;11.80;90.30;;;;;;5105313;28;20425;-56
2022/04/20 11:48:57;;;;;;;11.63;8.98;;;11.80;90.30;;;;;;5113766;28;20085;-48
2022/04/20 11:51:46;;;;;;;10.85;8.68;;;11.90;90.40;;;;;;5107797;28;20561;-53
2022/04/20 11:54:30;;;;;;;11.15;8.77;;;11.90;90.50;;;;;;5092668;28;20030;-52
2022/04/20 11:57:16;;;;;;;17.40;8.88;;;12.00;90.20;;;;;;5099424;27;20396;-50
2022/04/20 12:00:01;;;;;;;12.13;9.10;;;12.00;90.30;;;;;;5096803;28;20572;-56
2022/04/20 12:02:45;;;;;;;10.23;7.57;;;11.90;90.30;;;;;;5092219;28;20035;-54
2022/04/20 12:05:30;;;;;;;23.23;9.38;;;11.90;90.50;;;;;;5115872;27;20249;-56
2022/04/20 12:08:15;;;;;;;9.15;8.13;;;11.90;90.00;;;;;;5109394;28;20123;-52
2022/04/20 12:11:04;;;;;;;9.82;8.25;;;11.90;89.70;;;;;;5119846;27;20378;-53
2022/04/20 12:13:55;;;;;;;10.80;8.38;;;11.90;89.40;;;;;;5118356;27;20103;-50
2022/04/20 12:16:40;;;;;;;10.38;8.20;;;12.00;89.50;;;;;;5133340;27;20147;-51
2022/04/20 12:19:24;;;;;;;16.77;9.00;;;11.90;89.80;;;;;;5134074;27;20095;-50
2022/04/20 12:22:13;;;;;;;16.73;8.40;;;11.80;90.20;;;;;;5134573;27;20468;-49
2022/04/20 12:25:06;;;;;;;9.63;8.20;;;11.90;90.50;;;;;;5116266;27;20277;-53
2022/04/20 12:27:52;;;;;;;10.23;8.20;;;11.90;90.30;;;;;;5112191;28;20098;-47
2022/04/20 12:30:44;;;;;;;12.25;8.88;;;11.80;90.80;;;;;;5112963;28;20081;-54
2022/04/20 12:33:29;;;;;;;8.75;7.63;;;11.80;91.20;;;;;;5092451;28;20111;-56
2022/04/20 12:36:13;;;;;;;12.98;8.18;;;11.80;91.40;;;;;;5094809;28;20034;-53
2022/04/20 12:38:58;;;;;;;10.15;8.60;;;11.90;91.10;;;;;;5112551;28;20597;-55
2022/04/20 12:41:47;;;;;;;11.43;8.38;;;12.00;91.00;;;;;;5102571;27;20081;-47
2022/04/20 12:44:38;;;;;;;8.98;7.75;;;12.10;90.60;;;;;;5133373;27;20111;-50
2022/04/20 12:47:22;;;;;;;13.77;8.98;;;12.20;90.60;;;;;;5094892;28;20058;-49
2022/04/20 12:50:14;;;;;;;13.10;8.20;;;12.20;90.40;;;;;;5077705;28;20149;-50
2022/04/20 12:52:59;;;;;;;9.70;8.35;;;12.10;90.10;;;;;;5092932;28;20269;-50
2022/04/20 13:02:04;;;;;;;10.43;8.23;;;12.20;88.40;;;;;;5099444;28;20030;-56
2022/04/20 13:04:49;;;;;;;11.18;6.65;;;12.40;87.00;;;;;;5097371;28;20047;-51
2022/04/20 13:07:33;;;;;;;9.23;6.68;;;12.40;85.00;;;;;;5101593;28;20039;-53
2022/04/20 13:10:17;;;;;;;8.52;7.03;;;12.30;84.40;;;;;;5084632;28;20027;-53
2022/04/20 13:13:02;;;;;;;13.65;7.05;;;12.30;84.00;;;;;;5098824;28;20085;-53
2022/04/20 13:15:46;;;;;;;9.68;6.20;;;12.20;84.90;;;;;;5112748;28;20066;-51
2022/04/20 13:18:30;;;;;;;10.02;7.15;;;12.30;84.90;;;;;;5091992;28;20101;-51
2022/04/20 13:21:14;;;;;;;9.93;6.80;;;12.50;84.50;;;;;;5096766;28;20035;-54
2022/04/20 13:23:58;;;;;;;11.00;5.80;;;12.60;82.40;;;;;;5116442;28;20085;-52
2022/04/20 13:29:46;;;;;;;11.48;6.50;;;12.90;81.40;;;;;;5095522;28;20105;-52
2022/04/20 13:32:32;;;;;;;8.25;6.32;;;13.10;80.90;;;;;;5090498;28;20413;-46
2022/04/20 13:35:17;;;;;;;13.27;6.07;;;13.20;80.80;;;;;;5115904;28;20030;-53
2022/04/20 13:38:01;;;;;;;9.35;6.13;;;13.50;79.70;;;;;;5101778;28;20074;-50
2022/04/20 13:40:46;;;;;;;8.32;6.55;;;13.40;80.30;;;;;;5095914;28;20324;-50
2022/04/20 13:43:30;;;;;;;7.33;5.67;;;13.40;80.50;;;;;;5120187;27;20050;-54
2022/04/20 13:46:14;;;;;;;7.78;5.20;;;13.10;79.90;;;;;;5119175;28;20355;-50
2022/04/20 13:48:58;;;;;;;10.30;5.13;;;12.90;80.20;;;;;;5118476;28;20042;-53
2022/04/20 13:51:43;;;;;;;8.20;5.05;;;12.90;80.50;;;;;;5110584;28;20071;-52
2022/04/20 13:54:27;;;;;;;6.70;5.35;;;13.00;80.50;;;;;;5080881;28;20031;-47
2022/04/20 13:57:11;;;;;;;5.70;5.10;;;12.90;80.40;;;;;;5106458;28;20038;-50
2022/04/20 13:59:55;;;;;;;6.35;5.07;;;13.00;80.00;;;;;;5117297;28;20038;-46
2022/04/20 14:02:41;;;;;;;6.75;4.47;;;13.20;79.20;;;;;;5116313;28;20096;-46
2022/04/20 14:05:25;;;;;;;;;;;13.40;79.20;;;;;;5116464;28;20407;-49
2022/04/20 14:08:10;;;;;;;6.83;5.40;;;13.40;79.50;;;;;;5099497;28;19960;-47
2022/04/20 14:10:54;;;;;;;7.97;4.80;;;13.40;79.00;;;;;;5112907;28;20080;-49
2022/04/20 14:13:39;;;;;;;6.20;4.50;;;13.30;79.20;;;;;;5112633;28;20038;-48
2022/04/20 14:16:25;;;;;;;6.57;4.50;;;13.00;80.00;;;;;;5116120;28;20070;-48
2022/04/20 14:19:09;;;;;;;6.07;4.35;;;12.90;80.50;;;;;;5096242;28;20109;-52
2022/04/20 14:21:54;;;;;;;5.13;4.00;;;12.90;80.50;;;;;;5100279;28;20058;-49
2022/04/20 14:24:38;;;;;;;5.03;4.35;;;12.80;80.40;;;;;;5115609;28;20077;-51
2022/04/20 14:33:29;;;;;;;6.15;4.30;;;12.50;81.30;;;;;;5114815;28;20089;-52
2022/04/20 14:36:13;;;;;;;8.88;4.03;;;12.70;82.30;;;;;;5115926;28;20460;-48
2022/04/20 14:38:57;;;;;;;6.53;4.37;;;12.90;82.10;;;;;;5094571;28;20120;-49
2022/04/20 14:41:41;;;;;;;5.65;3.90;;;12.90;82.40;;;;;;5104070;27;20286;-51
2022/04/20 14:44:27;;;;;;;5.03;3.45;;;13.40;81.30;;;;;;5119647;27;20072;-50
2022/04/20 14:47:14;;;;;;;8.63;3.95;;;13.50;81.90;;;;;;5101223;28;20522;-56
2022/04/20 14:49:58;;;;;;;9.00;3.83;;;13.70;80.80;;;;;;5083095;28;20126;-54
2022/04/20 14:52:43;;;;;;;6.23;4.07;;;13.70;81.50;;;;;;5098879;28;20035;-56
2022/04/20 14:55:29;;;;;;;5.22;4.18;;;13.80;80.60;;;;;;5080357;28;20565;-55
2022/04/20 14:58:14;;;;;;;6.57;3.80;;;13.90;79.50;;;;;;5096925;27;20051;-50
2022/04/20 15:00:58;;;;;;;5.82;3.65;;;14.00;78.90;;;;;;5116807;27;20116;-55
2022/04/20 15:03:42;;;;;;;7.47;4.50;;;13.90;79.60;;;;;;5105475;28;20477;-51
2022/04/20 15:06:27;;;;;;;5.20;3.30;;;13.70;78.60;;;;;;5114716;28;20272;-53
2022/04/20 15:09:11;;;;;;;4.05;2.95;;;13.70;78.70;;;;;;5096406;28;20733;-54
2022/04/20 15:11:59;;;;;;;5.88;3.90;;;13.50;79.00;;;;;;5091839;28;20046;-53
2022/04/20 15:14:43;;;;;;;5.35;3.97;;;13.40;80.00;;;;;;5121337;27;20034;-51
2022/04/20 15:17:27;;;;;;;4.37;3.57;;;13.50;80.20;;;;;;5070432;28;20026;-54